createdAt,value
2023-04-21T00:02:45.157Z,100490.41
2023-04-21T00:05:34.352Z,100486.72
2023-04-21T00:08:23.473Z,100486.97
2023-04-21T00:11:12.446Z,100484.25
2023-04-21T00:14:01.174Z,100482.66
2023-04-21T00:16:52.699Z,100489.88
2023-04-21T00:19:41.350Z,100487.66
2023-04-21T00:22:30.626Z,100485.56
2023-04-21T00:25:19.616Z,100475.91
2023-04-21T00:28:08.547Z,100487.22
2023-04-21T00:30:57.203Z,100483.53
2023-04-21T00:33:47.265Z,100483.44
2023-04-21T00:36:35.952Z,100487.44
2023-04-21T00:39:24.508Z,100472.66
2023-04-21T00:42:13.082Z,100478.41
2023-04-21T00:45:01.719Z,100472.75
2023-04-21T00:47:50.285Z,100471.88
2023-04-21T00:50:41.170Z,100463.81
2023-04-21T00:53:33.501Z,100467.56
2023-04-21T00:56:23.309Z,100457.91
2023-04-21T00:59:11.988Z,100464.44
2023-04-21T01:02:00.741Z,100463.72
2023-04-21T01:04:49.780Z,100471.56
2023-04-21T01:07:39.970Z,100469.88
2023-04-21T01:10:28.571Z,100470.28
2023-04-21T01:13:17.120Z,100464.50
2023-04-21T01:16:06.341Z,100462.84
2023-04-21T01:18:55.090Z,100457.28
2023-04-21T01:21:45.134Z,100460.03
2023-04-21T01:24:40.766Z,100460.03
2023-04-21T01:27:29.327Z,100457.25
2023-04-21T01:30:17.985Z,100458.44
2023-04-21T01:33:06.690Z,100460.09
2023-04-21T01:35:55.564Z,100456.59
2023-04-21T01:38:45.589Z,100464.22
2023-04-21T01:41:34.255Z,100455.56
2023-04-21T01:44:22.989Z,100452.25
2023-04-21T01:47:12.423Z,100454.31
2023-04-21T01:50:01.029Z,100453.06
2023-04-21T01:52:49.737Z,100441.09
2023-04-21T01:55:39.958Z,100440.75
2023-04-21T01:58:28.529Z,100446.03
2023-04-21T02:01:17.232Z,100448.16
2023-04-21T02:04:06.533Z,100448.53
2023-04-21T02:06:58.255Z,100451.19
2023-04-21T02:09:47.112Z,100446.06
2023-04-21T02:12:37.072Z,100447.72
2023-04-21T02:15:25.908Z,100439.72
2023-04-21T02:18:14.966Z,100436.69
2023-04-21T02:21:03.694Z,100434.22
2023-04-21T02:23:53.087Z,100439.63
2023-04-21T02:26:41.679Z,100441.69
2023-04-21T02:29:32.017Z,100438.94
2023-04-21T02:32:25.945Z,100432.25
2023-04-21T02:35:15.739Z,100444.13
2023-04-21T02:38:08.889Z,100450.09
2023-04-21T02:40:57.981Z,100441.63
2023-04-21T02:43:46.654Z,100439.31
2023-04-21T02:46:37.776Z,100435.63
2023-04-21T02:49:26.551Z,100432.97
2023-04-21T02:52:15.934Z,100435.22
2023-04-21T02:55:04.573Z,100432.03
2023-04-21T02:57:53.262Z,100438.59
2023-04-21T03:00:41.911Z,100442.38
2023-04-21T03:03:33.140Z,100444.22
2023-04-21T03:06:22.017Z,100442.47
2023-04-21T03:09:10.680Z,100444.44
2023-04-21T03:11:59.282Z,100441.91
2023-04-21T03:14:48.124Z,100435.69
2023-04-21T03:17:36.774Z,100441.28
2023-04-21T03:20:26.757Z,100434.03
2023-04-21T03:23:15.889Z,100429.97
2023-04-21T03:26:08.422Z,100432.38
2023-04-21T03:28:57.005Z,100426.41
2023-04-21T03:31:45.976Z,100422.50
2023-04-21T03:34:34.645Z,100433.53
2023-04-21T03:37:24.677Z,100429.63
2023-04-21T03:40:13.315Z,100426.56
2023-04-21T03:43:02.018Z,100436.81
2023-04-21T03:45:50.692Z,100437.63
2023-04-21T03:48:39.309Z,100437.63
2023-04-21T03:51:32.385Z,100435.41
2023-04-21T03:54:22.454Z,100444.06
2023-04-21T03:57:11.091Z,100450.03
2023-04-21T03:59:59.762Z,100443.69
2023-04-21T04:02:48.616Z,100439.75
2023-04-21T04:05:37.842Z,100446.69
2023-04-21T04:08:26.514Z,100452.06
2023-04-21T04:11:16.541Z,100456.31
2023-04-21T04:14:05.214Z,100457.59
2023-04-21T04:16:53.811Z,100451.09
2023-04-21T04:19:42.411Z,100458.19
2023-04-21T04:22:31.007Z,100463.19
2023-04-21T04:25:19.684Z,100463.19
2023-04-21T04:28:09.672Z,100463.19
2023-04-21T04:30:58.343Z,100456.84
2023-04-21T04:33:46.948Z,100461.78
2023-04-21T04:36:35.746Z,100468.13
2023-04-21T04:39:24.713Z,100464.94
2023-04-21T04:42:14.455Z,100459.78
2023-04-21T04:45:04.643Z,100461.81
2023-04-21T04:47:53.384Z,100466.50
2023-04-21T04:50:41.978Z,100460.91
2023-04-21T04:53:30.931Z,100462.56
2023-04-21T04:56:19.521Z,100469.94
2023-04-21T04:59:08.401Z,100463.81
2023-04-21T05:01:58.780Z,100469.16
2023-04-21T05:04:47.495Z,100472.50
2023-04-21T05:07:36.506Z,100476.81
2023-04-21T05:10:25.500Z,100479.31
2023-04-21T05:13:14.128Z,100479.44
2023-04-21T05:16:03.064Z,100485.94
2023-04-21T05:18:54.017Z,100475.75
2023-04-21T05:21:42.749Z,100480.69
2023-04-21T05:24:31.398Z,100482.00
2023-04-21T05:27:20.039Z,100487.94
2023-04-21T05:30:09.803Z,100479.84
2023-04-21T05:32:58.489Z,100480.69
2023-04-21T05:35:48.667Z,100477.41
2023-04-21T05:38:37.393Z,100486.03
2023-04-21T05:41:26.020Z,100482.38
2023-04-21T05:44:14.775Z,100488.06
2023-04-21T05:47:03.396Z,100486.03
2023-04-21T05:49:53.955Z,100480.69
2023-04-21T05:52:44.206Z,100480.69
2023-04-21T05:55:32.785Z,100476.19
2023-04-21T05:58:21.397Z,100473.34
2023-04-21T06:01:10.237Z,100469.59
2023-04-21T06:03:58.913Z,100471.38
2023-04-21T06:06:47.820Z,100471.22
2023-04-21T06:09:38.320Z,100470.94
2023-04-21T06:12:26.930Z,100463.00
2023-04-21T06:15:15.738Z,100468.97
2023-04-21T06:18:04.394Z,100462.16
2023-04-21T06:20:53.933Z,100466.81
2023-04-21T06:23:42.550Z,100465.19
2023-04-21T06:26:33.156Z,100459.41
2023-04-21T06:29:21.887Z,100446.44
2023-04-21T06:32:11.181Z,100450.19
2023-04-21T06:35:00.054Z,100455.09
2023-04-21T06:37:48.812Z,100453.97
2023-04-21T06:40:37.481Z,100458.09
2023-04-21T06:43:27.489Z,100452.31
2023-04-21T06:46:16.028Z,100458.09
2023-04-21T06:49:04.895Z,100452.34
2023-04-21T06:51:53.759Z,100450.13
2023-04-21T06:54:42.444Z,100451.19
2023-04-21T06:57:31.254Z,100453.75
2023-04-21T07:00:22.455Z,100447.56
2023-04-21T07:03:11.330Z,100449.66
2023-04-21T07:06:00.025Z,100450.16
2023-04-21T07:09:01.857Z,100448.00
2023-04-21T07:11:50.572Z,100447.09
2023-04-21T07:14:39.180Z,100450.38
2023-04-21T07:17:29.326Z,100456.53
2023-04-21T07:20:18.919Z,100439.31
2023-04-21T07:23:08.014Z,100438.13
2023-04-21T07:25:56.732Z,100449.97
2023-04-21T07:28:45.700Z,100446.34
2023-04-21T07:31:34.432Z,100437.72
2023-04-21T07:34:24.641Z,100434.22
2023-04-21T07:37:13.288Z,100432.84
2023-04-21T07:40:01.988Z,100434.69
2023-04-21T07:42:50.931Z,100430.56
2023-04-21T07:45:39.819Z,100427.06
2023-04-21T07:48:28.723Z,100420.72
2023-04-21T07:51:18.816Z,100417.19
2023-04-21T07:54:07.479Z,100421.75
2023-04-21T07:56:56.127Z,100427.91
2023-04-21T07:59:45.053Z,100421.34
2023-04-21T08:02:33.781Z,100427.09
2023-04-21T08:05:22.627Z,100416.44
2023-04-21T08:08:12.800Z,100412.75
2023-04-21T08:11:01.509Z,100407.84
2023-04-21T08:13:51.790Z,100408.16
2023-04-21T08:16:42.288Z,100413.59
2023-04-21T08:19:31.229Z,100399.78
2023-04-21T08:22:20.084Z,100408.81
2023-04-21T08:25:10.707Z,100399.78
2023-04-21T08:27:59.424Z,100394.66
2023-04-21T08:30:48.021Z,100385.59
2023-04-21T08:33:41.375Z,100389.53
2023-04-21T08:36:36.064Z,100384.78
2023-04-21T08:39:25.109Z,100380.28
2023-04-21T08:42:16.030Z,100379.03
2023-04-21T08:45:04.888Z,100380.28
2023-04-21T08:47:53.940Z,100371.25
2023-04-21T08:50:46.340Z,100360.97
2023-04-21T08:53:35.024Z,100372.47
2023-04-21T08:56:26.229Z,100374.13
2023-04-21T08:59:16.491Z,100367.16
2023-04-21T09:02:11.151Z,100367.34
2023-04-21T09:05:00.207Z,100371.25
2023-04-21T09:07:49.278Z,100377.44
2023-04-21T09:10:45.069Z,100369.63
2023-04-21T09:13:36.563Z,100362.28
2023-04-21T09:16:26.674Z,100357.72
2023-04-21T09:19:16.750Z,100362.22
2023-04-21T09:22:05.692Z,100365.13
2023-04-21T09:25:00.062Z,100367.16
2023-04-21T09:27:49.123Z,100365.13
2023-04-21T09:30:38.449Z,100356.09
2023-04-21T09:33:32.558Z,100356.53
2023-04-21T09:36:28.107Z,100349.13
2023-04-21T09:42:12.017Z,100351.63
2023-04-21T09:47:57.971Z,100342.75
2023-04-21T09:53:42.303Z,100339.69
2023-04-21T09:56:39.113Z,100326.91
2023-04-21T09:59:32.291Z,100344.41
2023-04-21T10:02:22.063Z,100330.22
2023-04-21T10:05:12.026Z,100342.56
2023-04-21T10:08:02.551Z,100324.06
2023-04-21T10:10:52.966Z,100328.56
2023-04-21T10:13:43.333Z,100324.66
2023-04-21T10:16:32.128Z,100313.38
2023-04-21T10:19:28.176Z,100314.00
2023-04-21T10:22:28.471Z,100314.22
2023-04-21T10:25:18.812Z,100301.88
2023-04-21T10:28:08.158Z,100310.50
2023-04-21T10:31:27.097Z,100308.03
2023-04-21T10:34:17.264Z,100295.91
2023-04-21T10:37:16.251Z,100295.28
2023-04-21T10:40:09.360Z,100300.22
2023-04-21T10:42:59.404Z,100304.31
2023-04-21T10:45:48.073Z,100300.84
2023-04-21T10:48:39.011Z,100301.47
2023-04-21T10:51:32.824Z,100292.19
2023-04-21T10:54:23.525Z,100290.75
2023-04-21T10:57:14.344Z,100289.53
2023-04-21T11:00:07.093Z,100289.13
2023-04-21T11:02:57.998Z,100283.81
2023-04-21T11:05:46.710Z,100286.03
2023-04-21T11:08:38.255Z,100272.50
2023-04-21T11:11:27.013Z,100280.91
2023-04-21T11:14:19.308Z,100275.56
2023-04-21T11:17:16.262Z,100270.81
2023-04-21T11:20:06.627Z,100279.25
2023-04-21T11:22:58.411Z,100268.56
2023-04-21T11:25:49.499Z,100269.41
2023-04-21T11:28:41.985Z,100264.47
2023-04-21T11:31:31.384Z,100269.81
2023-04-21T11:34:25.132Z,100270.81
2023-04-21T11:37:17.771Z,100263.66
2023-04-21T11:40:08.439Z,100256.66
2023-04-21T11:42:57.195Z,100259.94
2023-04-21T11:45:50.710Z,100261.59
2023-04-21T11:48:39.651Z,100264.25
2023-04-21T11:51:34.893Z,100254.41
2023-04-21T11:54:24.500Z,100259.34
2023-04-21T11:57:13.223Z,100259.75
2023-04-21T12:00:02.682Z,100259.75
2023-04-21T12:02:57.258Z,100258.31
2023-04-21T12:05:46.070Z,100251.13
2023-04-21T12:08:36.151Z,100251.94
2023-04-21T12:11:25.233Z,100262.81
2023-04-21T12:14:13.916Z,100261.41
2023-04-21T12:17:02.487Z,100260.97
2023-04-21T12:19:51.206Z,100254.81
2023-04-21T12:22:40.068Z,100253.56
2023-04-21T12:25:30.131Z,100253.81
2023-04-21T12:28:19.095Z,100254.59
2023-04-21T12:31:08.071Z,100239.78
2023-04-21T12:33:57.554Z,100257.91
2023-04-21T12:36:46.219Z,100241.66
2023-04-21T12:39:35.568Z,100237.34
2023-04-21T12:42:25.664Z,100249.28
2023-04-21T12:45:14.569Z,100252.56
2023-04-21T12:48:04.534Z,100240.63
2023-04-21T12:50:53.287Z,100238.59
2023-04-21T12:53:42.005Z,100231.16
2023-04-21T12:56:31.431Z,100225.84
2023-04-21T12:59:21.381Z,100227.91
2023-04-21T13:02:10.263Z,100223.75
2023-04-21T13:04:58.904Z,100228.09
2023-04-21T13:07:47.566Z,100219.69
2023-04-21T13:10:36.592Z,100215.56
2023-04-21T13:13:25.232Z,100217.22
2023-04-21T13:16:15.441Z,100219.28
2023-04-21T13:19:04.166Z,100211.47
2023-04-21T13:21:54.354Z,100203.63
2023-04-21T13:24:43.114Z,100205.13
2023-04-21T13:27:33.312Z,100203.63
2023-04-21T13:30:22.001Z,100206.50
2023-04-21T13:33:12.586Z,100201.59
2023-04-21T13:36:01.635Z,100193.38
2023-04-21T13:38:50.929Z,100184.94
2023-04-21T13:41:39.522Z,100184.31
2023-04-21T13:44:28.243Z,100174.25
2023-04-21T13:47:16.906Z,100185.91
2023-04-21T13:50:09.035Z,100178.13
2023-04-21T13:52:57.770Z,100170.13
2023-04-21T13:55:46.738Z,100172.00
2023-04-21T13:58:35.906Z,100167.06
2023-04-21T14:01:24.544Z,100161.31
2023-04-21T14:04:13.514Z,100157.19
2023-04-21T14:07:03.916Z,100157.19
2023-04-21T14:09:52.768Z,100147.31
2023-04-21T14:12:41.419Z,100150.63
2023-04-21T14:15:30.170Z,100139.09
2023-04-21T14:18:18.915Z,100139.50
2023-04-21T14:21:07.819Z,100141.56
2023-04-21T14:23:57.858Z,100151.00
2023-04-21T14:26:46.591Z,100146.50
2023-04-21T14:29:35.435Z,100131.91
2023-04-21T14:32:24.379Z,100142.78
2023-04-21T14:35:13.293Z,100142.38
2023-04-21T14:38:02.014Z,100139.09
2023-04-21T14:40:54.446Z,100140.31
2023-04-21T14:43:43.247Z,100132.31
2023-04-21T14:46:32.073Z,100129.88
2023-04-21T14:49:20.794Z,100125.94
2023-04-21T14:52:09.668Z,100131.28
2023-04-21T14:54:58.359Z,100116.50
2023-04-21T14:57:48.396Z,100132.53
2023-04-21T15:00:37.146Z,100118.94
2023-04-21T15:03:26.400Z,100121.00
2023-04-21T15:06:16.152Z,100104.56
2023-04-21T15:09:05.230Z,100107.25
2023-04-21T15:11:54.736Z,100099.22
2023-04-21T15:14:44.751Z,100094.09
2023-04-21T15:17:33.515Z,100089.75
2023-04-21T15:20:32.516Z,100067.16
2023-04-21T15:23:29.570Z,100103.94
2023-04-21T15:26:18.451Z,100100.47
2023-04-21T15:29:07.156Z,100097.38
2023-04-21T15:31:57.170Z,100097.16
2023-04-21T15:34:45.834Z,100091.44
2023-04-21T15:37:34.521Z,100088.34
2023-04-21T15:40:23.258Z,100094.72
2023-04-21T15:43:11.912Z,100086.91
2023-04-21T15:46:00.605Z,100086.91
2023-04-21T15:48:50.583Z,100084.63
2023-04-21T15:51:39.428Z,100066.78
2023-04-21T15:54:28.247Z,100064.72
2023-04-21T15:57:16.919Z,100072.13
2023-04-21T16:00:10.060Z,100059.34
2023-04-21T16:02:59.738Z,100070.47
2023-04-21T16:05:50.023Z,100088.16
2023-04-21T16:08:38.893Z,100079.09
2023-04-21T16:11:29.245Z,100078.47
2023-04-21T16:14:17.986Z,100071.28
2023-04-21T16:17:06.686Z,100076.41
2023-04-21T16:19:55.441Z,100075.81
2023-04-21T16:22:45.477Z,100074.34
2023-04-21T16:25:35.462Z,100067.97
2023-04-21T16:28:24.492Z,100065.13
2023-04-21T16:31:13.098Z,100059.75
2023-04-21T16:34:01.895Z,100049.66
2023-04-21T16:36:50.712Z,100062.63
2023-04-21T16:39:40.761Z,100063.06
2023-04-21T16:42:29.418Z,100059.72
2023-04-21T16:45:18.438Z,100057.66
2023-04-21T16:48:07.276Z,100056.81
2023-04-21T16:50:56.141Z,100055.78
2023-04-21T16:53:44.806Z,100065.28
2023-04-21T16:56:35.374Z,100063.81
2023-04-21T16:59:24.520Z,100060.13
2023-04-21T17:02:13.386Z,100046.16
2023-04-21T17:05:02.032Z,100054.00
2023-04-21T17:07:51.632Z,100052.72
2023-04-21T17:10:40.325Z,100042.06
2023-04-21T17:13:30.331Z,100053.19
2023-04-21T17:16:18.964Z,100054.22
2023-04-21T17:19:07.827Z,100050.31
2023-04-21T17:21:56.450Z,100048.25
2023-04-21T17:24:53.215Z,100047.66
2023-04-21T17:27:42.742Z,100050.75
2023-04-21T17:30:35.739Z,100042.09
2023-04-21T17:33:24.845Z,100054.84
2023-04-21T17:36:14.167Z,100047.88
2023-04-21T17:39:02.907Z,100050.38
2023-04-21T17:41:51.499Z,100053.66
2023-04-21T17:44:41.244Z,100056.09
2023-04-21T17:47:31.403Z,100057.31
2023-04-21T17:50:20.819Z,100061.25
2023-04-21T17:53:09.516Z,100056.53
2023-04-21T17:55:58.291Z,100061.47
2023-04-21T17:58:47.003Z,100065.16
2023-04-21T18:01:35.725Z,100058.59
2023-04-21T18:04:27.303Z,100050.78
2023-04-21T18:07:16.159Z,100059.22
2023-04-21T18:10:05.401Z,100055.94
2023-04-21T18:12:54.069Z,100063.94
2023-04-21T18:15:42.703Z,100052.03
2023-04-21T18:18:31.943Z,100063.34
2023-04-21T18:21:22.664Z,100074.03
2023-04-21T18:24:11.260Z,100069.91
2023-04-21T18:26:59.854Z,100073.19
2023-04-21T18:29:48.579Z,100068.44
2023-04-21T18:32:37.503Z,100075.03
2023-04-21T18:35:26.143Z,100067.78
2023-04-21T18:38:16.145Z,100063.03
2023-04-21T18:41:04.722Z,100074.34
2023-04-21T18:43:53.335Z,100074.47
2023-04-21T18:46:42.661Z,100081.09
2023-04-21T18:49:31.261Z,100080.19
2023-04-21T18:52:19.961Z,100087.97
2023-04-21T18:55:11.132Z,100085.44
2023-04-21T18:57:59.720Z,100077.59
2023-04-21T19:00:48.421Z,100075.97
2023-04-21T19:03:42.931Z,100080.75
2023-04-21T19:06:32.556Z,100086.25
2023-04-21T19:09:21.157Z,100089.78
2023-04-21T19:12:13.272Z,100087.25
2023-04-21T19:15:01.997Z,100086.75
2023-04-21T19:17:50.656Z,100089.59
2023-04-21T19:20:39.323Z,100082.50
2023-04-21T19:23:27.963Z,100086.81
2023-04-21T19:26:16.696Z,100082.94
2023-04-21T19:29:08.641Z,100087.53
2023-04-21T19:31:57.315Z,100081.34
2023-04-21T19:34:46.151Z,100088.25
2023-04-21T19:37:35.813Z,100085.63
2023-04-21T19:40:24.398Z,100084.22
2023-04-21T19:43:17.498Z,100080.28
2023-04-21T19:46:07.934Z,100085.03
2023-04-21T19:48:56.839Z,100085.03
2023-04-21T19:51:45.380Z,100086.06
2023-04-21T19:54:33.996Z,100085.03
2023-04-21T19:57:22.611Z,100084.81
2023-04-21T20:00:12.511Z,100090.38
2023-04-21T20:03:02.637Z,100086.69
2023-04-21T20:05:51.325Z,100085.66
2023-04-21T20:08:39.919Z,100076.63
2023-04-21T20:11:29.329Z,100086.50
2023-04-21T20:14:19.230Z,100089.56
2023-04-21T20:17:07.981Z,100083.59
2023-04-21T20:19:58.846Z,100093.50
2023-04-21T20:22:48.332Z,100091.63
2023-04-21T20:25:37.644Z,100095.94
2023-04-21T20:28:27.540Z,100095.13
2023-04-21T20:31:16.595Z,100102.53
2023-04-21T20:34:05.570Z,100105.59
2023-04-21T20:36:55.641Z,100103.75
2023-04-21T20:39:46.796Z,100096.34
2023-04-21T20:42:36.335Z,100102.13
2023-04-21T20:45:26.145Z,100113.19
2023-04-21T20:48:14.967Z,100111.78
2023-04-21T20:51:03.613Z,100112.38
2023-04-21T20:53:53.723Z,100112.81
2023-04-21T20:56:42.353Z,100109.09
2023-04-21T20:59:31.047Z,100120.59
2023-04-21T21:02:19.783Z,100114.22
2023-04-21T21:05:09.018Z,100114.88
2023-04-21T21:07:57.918Z,100111.97
2023-04-21T21:10:47.988Z,100108.25
2023-04-21T21:13:36.633Z,100113.22
2023-04-21T21:16:25.813Z,100121.44
2023-04-21T21:19:14.653Z,100119.38
2023-04-21T21:22:03.304Z,100123.06
2023-04-21T21:24:52.073Z,100125.13
2023-04-21T21:27:42.117Z,100125.56
2023-04-21T21:30:30.714Z,100132.31
2023-04-21T21:33:19.556Z,100135.41
2023-04-21T21:36:08.531Z,100144.84
2023-04-21T21:38:57.213Z,100143.00
2023-04-21T21:41:45.829Z,100137.03
2023-04-21T21:44:36.370Z,100149.78
2023-04-21T21:47:25.130Z,100137.03
2023-04-21T21:50:14.060Z,100145.25
2023-04-21T21:53:02.660Z,100152.25
2023-04-21T21:55:51.233Z,100150.19
2023-04-21T21:58:39.927Z,100152.25
2023-04-21T22:01:29.952Z,100145.28
2023-04-21T22:04:18.701Z,100151.22
2023-04-21T22:07:07.969Z,100153.91
2023-04-21T22:09:59.658Z,100155.31
2023-04-21T22:12:48.234Z,100155.53
2023-04-21T22:15:37.285Z,100154.69
2023-04-21T22:18:28.061Z,100147.72
2023-04-21T22:21:16.928Z,100164.97
2023-04-21T22:24:06.370Z,100156.97
2023-04-21T22:26:55.023Z,100161.31
2023-04-21T22:29:44.073Z,100158.00
2023-04-21T22:32:32.977Z,100159.44
2023-04-21T22:35:23.017Z,100166.25
2023-04-21T22:38:11.684Z,100159.25
2023-04-21T22:41:00.386Z,100167.28
2023-04-21T22:43:49.524Z,100173.66
2023-04-21T22:46:38.392Z,100166.63
2023-04-21T22:49:27.227Z,100167.28
2023-04-21T22:52:17.150Z,100168.50
2023-04-21T22:55:06.289Z,100177.31
2023-04-21T22:57:54.929Z,100177.13
2023-04-21T23:00:45.113Z,100169.13
2023-04-21T23:03:33.959Z,100175.69
2023-04-21T23:06:22.639Z,100169.31
2023-04-21T23:09:12.778Z,100171.97
2023-04-21T23:12:01.659Z,100175.69
2023-04-21T23:14:50.275Z,100174.88
2023-04-21T23:17:38.991Z,100168.28
2023-04-21T23:20:27.677Z,100176.50
2023-04-21T23:23:16.413Z,100172.41
2023-04-21T23:26:06.684Z,100171.97
2023-04-21T23:28:55.306Z,100172.41
2023-04-21T23:31:44.115Z,100172.81
2023-04-21T23:34:32.986Z,100173.22
2023-04-21T23:37:21.664Z,100170.94
2023-04-21T23:40:12.559Z,100171.56
2023-04-21T23:43:02.782Z,100170.16
2023-04-21T23:45:51.960Z,100164.19
2023-04-21T23:48:40.723Z,100162.13
2023-04-21T23:51:29.523Z,100165.84
2023-04-21T23:54:18.170Z,100157.22
2023-04-21T23:57:06.868Z,100158.44
2023-04-21T23:59:56.904Z,100155.16
